Terminal Aerodrome Forecast
Issued by NWS

Home | Current Version | Previous Version | Text Only | Print | Product List | Glossary On
Versions: 1 2 3 4 5 6 7 8 9 10 11 12 13 14 15 16
000
FTUS42 KFFC 251129
TAFRYY
TAF
KRYY 251129Z 2512/2612 VRB05KT P6SM FEW040 SCT150 OVC250
     FM251300 30005KT P6SM VCSH SCT020 SCT200
     FM251500 32007KT P6SM VCSH BKN030 BKN100
      TEMPO 2518/2522 4SM -TSRA BKN035CB
     FM252200 29007KT P6SM SCT030 BKN250
     FM260600 30005KT P6SM SCT250=

USA.gov is the U.S. government's official web portal to all federal, state and local government web resources and services.